Time;durP1;ratioP1;P1;durP2;ratioP2;P2;SDS_P1;SDS_P2;PMS_P1;PMS_P2;Temp;Humidity;BMP_temperature;BMP_pressure;BME280_temperature;BME280_humidity;BME280_pressure;Samples;Min_cycle;Max_cycle;Signal;HPM_P1;HPM_P2
2023/10/28 00:02:05;;;;;;;35.75;20.02;;;10.20;99.90;;;;;;5013003;28;20046;-73
2023/10/28 00:04:32;;;;;;;34.40;19.35;;;10.20;99.90;;;;;;5011959;28;20042;-73
2023/10/28 00:06:58;;;;;;;35.92;19.75;;;10.20;99.90;;;;;;5009442;28;20038;-73
2023/10/28 00:09:24;;;;;;;36.78;18.95;;;10.20;99.90;;;;;;5013175;28;20095;-73
2023/10/28 00:11:54;;;;;;;40.78;20.25;;;10.20;99.90;;;;;;4993092;28;20048;-73
2023/10/28 00:14:20;;;;;;;35.78;19.90;;;11.00;99.90;;;;;;5011846;28;20029;-74
2023/10/28 00:16:48;;;;;;;40.60;20.35;;;10.10;99.90;;;;;;5013423;28;20052;-73
2023/10/28 00:19:24;;;;;;;36.88;19.80;;;10.20;99.90;;;;;;4994643;28;20503;-73
2023/10/28 00:21:49;;;;;;;38.22;20.05;;;10.10;99.90;;;;;;5012865;28;20081;-73
2023/10/28 00:24:15;;;;;;;37.60;20.15;;;10.10;99.90;;;;;;5012462;28;20085;-74
2023/10/28 00:26:42;;;;;;;38.00;19.75;;;10.10;99.90;;;;;;5013221;28;20046;-73
2023/10/28 00:29:08;;;;;;;36.00;18.05;;;10.10;99.90;;;;;;4993247;28;20108;-73
2023/10/28 00:31:34;;;;;;;34.40;18.50;;;10.10;99.90;;;;;;5012574;28;20085;-73
2023/10/28 00:34:00;;;;;;;35.40;19.42;;;10.10;99.90;;;;;;5012281;28;20506;-73
2023/10/28 00:36:25;;;;;;;36.33;18.38;;;10.10;99.90;;;;;;5007809;28;20139;-74
2023/10/28 00:38:51;;;;;;;36.08;18.38;;;10.00;99.90;;;;;;5011532;28;20077;-73
2023/10/28 00:41:27;;;;;;;36.25;18.60;;;10.00;99.90;;;;;;5018360;28;20029;-73
2023/10/28 00:43:52;;;;;;;34.33;18.15;;;10.10;99.90;;;;;;5004110;28;20046;-74
2023/10/28 00:46:18;;;;;;;34.20;17.08;;;10.10;99.90;;;;;;5011810;28;20030;-73
2023/10/28 00:48:43;;;;;;;31.55;17.33;;;10.00;99.90;;;;;;5007837;28;20121;-74
2023/10/28 00:51:09;;;;;;;35.92;16.50;;;10.00;99.90;;;;;;5012372;28;20117;-73
2023/10/28 00:53:36;;;;;;;36.45;17.13;;;10.10;99.90;;;;;;5011203;28;20060;-73
2023/10/28 00:56:04;;;;;;;29.48;16.88;;;10.00;99.90;;;;;;5006078;28;20482;-74
2023/10/28 00:58:38;;;;;;;30.55;16.20;;;10.00;99.90;;;;;;5009536;28;20033;-73
2023/10/28 01:01:05;;;;;;;32.90;16.48;;;10.00;99.90;;;;;;5012109;28;20033;-73
2023/10/28 01:03:31;;;;;;;29.70;15.52;;;10.00;99.90;;;;;;5012127;28;20103;-73
2023/10/28 01:05:57;;;;;;;28.73;15.13;;;10.00;99.90;;;;;;5019986;28;20489;-73
2023/10/28 01:08:27;;;;;;;28.27;14.90;;;9.90;99.90;;;;;;5019124;28;20494;-74
2023/10/28 01:10:52;;;;;;;29.23;14.88;;;9.90;99.90;;;;;;5010717;28;20038;-73
2023/10/28 01:13:21;;;;;;;29.45;15.45;;;9.90;99.90;;;;;;5012315;28;20483;-73
2023/10/28 01:15:47;;;;;;;30.13;14.98;;;9.90;99.90;;;;;;5008845;28;20114;-73
2023/10/28 01:18:13;;;;;;;27.92;14.40;;;9.90;99.90;;;;;;5012260;28;20515;-73
2023/10/28 01:20:39;;;;;;;24.42;14.13;;;9.90;99.90;;;;;;5010344;28;20398;-73
2023/10/28 01:23:05;;;;;;;27.42;14.70;;;9.90;99.90;;;;;;4992069;28;20065;-73
2023/10/28 01:25:31;;;;;;;29.33;15.05;;;9.90;99.90;;;;;;5010442;28;20046;-73
2023/10/28 01:28:03;;;;;;;24.48;13.73;;;9.90;99.90;;;;;;5009053;28;20061;-73
2023/10/28 01:30:30;;;;;;;28.38;14.00;;;9.80;99.90;;;;;;5009528;28;20048;-73
2023/10/28 01:32:56;;;;;;;25.80;14.13;;;9.80;99.90;;;;;;5010068;28;20088;-73
2023/10/28 01:35:22;;;;;;;25.25;13.85;;;9.80;99.90;;;;;;5013408;28;20083;-73
2023/10/28 01:37:49;;;;;;;24.92;13.55;;;9.80;99.90;;;;;;5015344;28;20029;-73
2023/10/28 01:40:14;;;;;;;25.80;13.07;;;9.80;99.90;;;;;;5012220;28;20415;-73
2023/10/28 01:42:42;;;;;;;26.02;13.65;;;9.80;99.90;;;;;;5007934;28;20049;-73
2023/10/28 01:45:09;;;;;;;24.25;12.65;;;9.80;99.90;;;;;;5019733;28;20073;-72
2023/10/28 01:47:36;;;;;;;27.90;13.25;;;9.70;99.90;;;;;;5005376;28;20045;-73
2023/10/28 01:50:02;;;;;;;24.25;13.02;;;9.70;99.90;;;;;;5009701;28;20099;-73
2023/10/28 01:52:28;;;;;;;21.23;12.18;;;9.70;99.90;;;;;;4993712;28;20069;-73
2023/10/28 01:54:53;;;;;;;23.52;13.10;;;9.70;99.90;;;;;;5009331;28;20053;-73
2023/10/28 01:57:20;;;;;;;26.48;12.63;;;9.70;99.90;;;;;;5011268;28;20041;-73
2023/10/28 01:59:45;;;;;;;24.33;12.63;;;9.70;99.90;;;;;;5001736;28;20410;-73
2023/10/28 02:02:11;;;;;;;24.75;12.30;;;9.70;99.90;;;;;;5009837;28;20053;-73
2023/10/28 02:04:37;;;;;;;23.02;12.02;;;9.70;99.90;;;;;;5011663;28;20042;-73
2023/10/28 02:07:06;;;;;;;22.20;11.35;;;9.70;99.90;;;;;;5007486;28;20041;-73
2023/10/28 02:09:48;;;;;;;22.90;11.93;;;9.60;99.90;;;;;;5009931;28;20049;-73
2023/10/28 02:12:14;;;;;;;22.40;12.18;;;9.60;99.90;;;;;;5008626;28;20112;-73
2023/10/28 02:14:43;;;;;;;20.85;11.57;;;9.60;99.90;;;;;;5009272;28;20462;-73
2023/10/28 02:17:10;;;;;;;21.13;11.60;;;9.60;99.90;;;;;;5002733;28;20034;-73
2023/10/28 02:19:36;;;;;;;21.98;11.57;;;9.60;99.90;;;;;;5007007;28;20041;-73
2023/10/28 02:22:02;;;;;;;22.73;11.57;;;9.70;99.90;;;;;;4993221;28;20499;-73
2023/10/28 02:24:30;;;;;;;23.25;12.32;;;9.60;99.90;;;;;;4993471;28;20068;-73
2023/10/28 02:26:57;;;;;;;22.77;11.82;;;9.60;99.90;;;;;;5008225;28;20058;-74
2023/10/28 02:29:23;;;;;;;20.98;11.60;;;9.60;99.90;;;;;;4989214;28;20088;-73
2023/10/28 02:31:50;;;;;;;22.90;11.60;;;9.60;99.90;;;;;;5009782;28;20046;-73
2023/10/28 02:34:15;;;;;;;20.48;11.88;;;9.60;99.90;;;;;;5012860;28;20038;-73
2023/10/28 02:36:41;;;;;;;20.58;11.38;;;9.60;99.90;;;;;;5007308;28;20042;-73
2023/10/28 02:39:07;;;;;;;27.95;11.45;;;9.70;99.90;;;;;;5010676;28;20406;-73
2023/10/28 02:41:33;;;;;;;21.27;10.85;;;9.60;99.90;;;;;;5009244;28;20033;-73
2023/10/28 02:44:03;;;;;;;24.60;11.40;;;9.50;99.90;;;;;;5008891;28;20479;-73
2023/10/28 02:46:28;;;;;;;22.92;11.27;;;9.50;99.90;;;;;;5014890;28;20041;-73
2023/10/28 02:48:54;;;;;;;19.25;11.35;;;9.50;99.90;;;;;;5011054;28;20084;-73
2023/10/28 02:51:20;;;;;;;23.77;10.85;;;9.60;99.90;;;;;;5003610;28;20466;-73
2023/10/28 02:53:48;;;;;;;22.05;11.65;;;9.60;99.90;;;;;;5009754;28;20045;-73
2023/10/28 02:56:15;;;;;;;22.95;11.20;;;9.60;99.90;;;;;;4987392;28;20395;-73
2023/10/28 02:58:40;;;;;;;24.17;11.27;;;9.60;99.90;;;;;;5007246;28;20406;-73
2023/10/28 03:01:08;;;;;;;24.52;12.05;;;9.60;99.90;;;;;;5009712;28;20388;-73
2023/10/28 03:03:37;;;;;;;27.33;11.43;;;9.60;99.90;;;;;;4990996;28;20041;-73
2023/10/28 03:06:03;;;;;;;22.02;11.75;;;9.60;99.90;;;;;;4996628;28;20562;-73
2023/10/28 03:08:29;;;;;;;22.60;11.07;;;9.70;99.90;;;;;;5020376;28;20081;-73
2023/10/28 03:10:54;;;;;;;24.15;11.68;;;9.70;99.90;;;;;;5014365;28;20049;-73
2023/10/28 03:13:21;;;;;;;23.60;11.50;;;9.70;99.90;;;;;;5012772;28;20077;-73
2023/10/28 03:15:52;;;;;;;28.58;11.85;;;9.70;99.90;;;;;;5011943;28;20045;-74
2023/10/28 03:18:17;;;;;;;24.00;11.38;;;9.70;99.90;;;;;;5010758;28;20064;-75
2023/10/28 03:20:43;;;;;;;20.83;11.10;;;9.70;99.90;;;;;;5008809;28;20042;-73
2023/10/28 03:23:11;;;;;;;23.73;11.25;;;9.70;99.90;;;;;;5008501;28;20531;-73
2023/10/28 03:25:38;;;;;;;28.80;11.75;;;9.80;99.90;;;;;;5011882;28;20042;-73
2023/10/28 03:28:06;;;;;;;26.00;11.60;;;9.70;99.90;;;;;;5014531;28;20048;-73
2023/10/28 03:30:32;;;;;;;28.00;12.05;;;9.80;99.90;;;;;;4996061;28;20052;-73
2023/10/28 03:32:58;;;;;;;26.45;11.93;;;9.80;99.90;;;;;;5011483;28;20042;-73
2023/10/28 03:35:24;;;;;;;28.52;11.35;;;9.80;99.90;;;;;;5014640;28;20091;-73
2023/10/28 03:37:50;;;;;;;27.58;12.43;;;9.80;99.90;;;;;;4989236;28;20457;-73
2023/10/28 03:40:16;;;;;;;25.95;12.45;;;9.80;99.90;;;;;;5011731;28;20172;-73
2023/10/28 03:42:42;;;;;;;28.50;12.43;;;9.80;99.90;;;;;;5004668;28;20029;-73
2023/10/28 03:45:08;;;;;;;28.38;12.80;;;9.80;99.90;;;;;;4994259;28;20498;-73
2023/10/28 03:47:34;;;;;;;27.45;13.32;;;9.80;99.90;;;;;;5009536;28;20048;-73
2023/10/28 03:50:00;;;;;;;27.50;13.55;;;9.90;99.90;;;;;;5007764;28;20487;-73
2023/10/28 03:52:27;;;;;;;32.42;13.57;;;9.90;99.90;;;;;;5012108;28;20070;-73
2023/10/28 03:54:52;;;;;;;24.73;12.30;;;9.90;99.90;;;;;;5009886;28;20036;-73
2023/10/28 03:57:18;;;;;;;24.27;11.57;;;9.80;99.90;;;;;;5004290;28;20125;-73
2023/10/28 03:59:46;;;;;;;28.85;12.55;;;9.80;99.90;;;;;;5012831;28;20038;-73
2023/10/28 04:02:19;;;;;;;27.05;11.57;;;9.80;99.90;;;;;;4995718;28;20037;-72
2023/10/28 04:04:45;;;;;;;23.70;12.13;;;9.80;99.90;;;;;;5010323;28;20033;-73
2023/10/28 04:07:11;;;;;;;23.13;12.07;;;9.80;99.90;;;;;;5012578;28;20037;-73
2023/10/28 04:09:37;;;;;;;28.02;12.23;;;9.80;99.90;;;;;;5011242;28;20061;-73
2023/10/28 04:12:05;;;;;;;27.25;12.45;;;9.90;99.90;;;;;;4990060;28;20038;-73
2023/10/28 04:14:34;;;;;;;29.98;12.63;;;9.90;99.90;;;;;;5013408;28;20038;-72
2023/10/28 04:17:04;;;;;;;26.42;12.32;;;9.90;99.90;;;;;;5008355;28;20460;-74
2023/10/28 04:19:29;;;;;;;25.02;12.45;;;9.90;99.90;;;;;;5012270;28;20037;-73
2023/10/28 04:21:55;;;;;;;26.10;12.80;;;9.90;99.90;;;;;;4991408;28;20064;-74
2023/10/28 04:24:22;;;;;;;25.23;11.68;;;9.90;99.90;;;;;;5013583;28;20053;-73
2023/10/28 04:26:47;;;;;;;28.73;12.38;;;9.90;99.90;;;;;;5012043;28;20046;-73
2023/10/28 04:29:15;;;;;;;25.80;12.23;;;9.90;99.90;;;;;;5011599;28;20047;-73
2023/10/28 04:31:40;;;;;;;24.05;12.55;;;10.00;99.90;;;;;;4999208;28;20077;-72
2023/10/28 04:34:06;;;;;;;26.02;12.27;;;10.00;99.90;;;;;;5011285;28;20146;-73
2023/10/28 04:36:31;;;;;;;26.25;13.25;;;10.00;99.90;;;;;;5011865;28;20049;-73
2023/10/28 04:38:57;;;;;;;26.02;12.35;;;10.00;99.90;;;;;;5011477;28;20045;-73
2023/10/28 04:41:23;;;;;;;23.20;12.23;;;10.00;99.90;;;;;;5014125;28;20040;-73
2023/10/28 04:43:49;;;;;;;23.40;11.95;;;10.10;99.90;;;;;;5013952;28;20120;-73
2023/10/28 04:46:15;;;;;;;25.40;12.80;;;10.00;99.90;;;;;;5012026;28;20510;-73
2023/10/28 04:48:46;;;;;;;27.48;12.70;;;10.10;99.90;;;;;;5012965;28;20033;-73
2023/10/28 04:51:13;;;;;;;27.15;12.75;;;10.00;99.90;;;;;;5012358;28;20062;-73
2023/10/28 04:53:40;;;;;;;31.92;13.32;;;10.10;99.90;;;;;;5013004;28;20049;-73
2023/10/28 04:56:08;;;;;;;25.75;12.30;;;10.10;99.90;;;;;;5005257;28;20038;-72
2023/10/28 04:58:35;;;;;;;28.83;12.20;;;10.10;99.90;;;;;;5011381;28;20096;-73
2023/10/28 05:01:10;;;;;;;23.30;12.52;;;10.10;99.90;;;;;;5012722;28;20088;-73
2023/10/28 05:03:35;;;;;;;27.63;13.07;;;10.10;99.90;;;;;;4993206;28;20041;-73
2023/10/28 05:06:01;;;;;;;23.05;13.23;;;10.10;99.90;;;;;;5013934;28;20079;-73
2023/10/28 05:08:30;;;;;;;32.22;13.23;;;10.10;99.90;;;;;;5010924;28;20080;-73
2023/10/28 05:10:57;;;;;;;24.60;12.27;;;10.10;99.90;;;;;;5011632;28;20388;-73
2023/10/28 05:13:22;;;;;;;27.08;12.15;;;10.20;99.90;;;;;;4993235;28;20157;-73
2023/10/28 05:15:48;;;;;;;23.00;11.80;;;10.10;99.90;;;;;;5012704;28;20114;-73
2023/10/28 05:18:14;;;;;;;20.88;11.82;;;10.20;99.90;;;;;;5005690;28;20042;-73
2023/10/28 05:20:40;;;;;;;22.15;12.38;;;10.20;99.90;;;;;;5006616;28;20116;-73
2023/10/28 05:23:06;;;;;;;27.70;12.20;;;10.20;99.90;;;;;;5011825;28;20141;-73
2023/10/28 05:25:32;;;;;;;26.25;12.10;;;10.20;99.90;;;;;;5011216;28;20048;-73
2023/10/28 05:27:58;;;;;;;22.55;10.77;;;10.20;99.90;;;;;;5010789;28;20053;-74
2023/10/28 05:30:23;;;;;;;22.05;11.57;;;10.20;99.90;;;;;;5007145;28;20475;-73
2023/10/28 05:32:50;;;;;;;26.15;11.05;;;10.20;99.90;;;;;;5011455;28;20135;-73
2023/10/28 05:35:18;;;;;;;27.80;12.13;;;10.20;99.90;;;;;;5008544;28;20406;-73
2023/10/28 05:37:43;;;;;;;25.15;11.73;;;10.20;99.90;;;;;;5005356;28;20033;-73
2023/10/28 05:40:13;;;;;;;25.58;10.98;;;10.20;99.90;;;;;;5026879;28;20388;-73
2023/10/28 05:42:39;;;;;;;24.45;10.90;;;10.20;99.90;;;;;;5002030;28;20474;-73
2023/10/28 05:45:07;;;;;;;24.52;11.18;;;10.70;99.90;;;;;;5009224;28;20133;-73
2023/10/28 05:47:36;;;;;;;20.48;10.98;;;10.20;99.90;;;;;;5006119;28;20037;-72
2023/10/28 05:50:10;;;;;;;19.42;10.07;;;10.20;99.90;;;;;;5011287;28;20499;-73
2023/10/28 05:52:38;;;;;;;24.45;10.27;;;10.20;99.90;;;;;;5017613;28;20050;-73
2023/10/28 05:55:12;;;;;;;22.48;10.35;;;10.20;99.90;;;;;;5020679;28;20038;-73
2023/10/28 05:57:39;;;;;;;18.13;9.63;;;10.20;99.90;;;;;;5020007;28;20037;-73
2023/10/28 06:00:13;;;;;;;19.05;9.40;;;10.10;99.90;;;;;;5018792;28;20061;-73
2023/10/28 06:02:39;;;;;;;18.40;9.23;;;10.10;99.90;;;;;;5013641;28;20124;-73
2023/10/28 06:05:08;;;;;;;18.55;9.27;;;10.10;99.90;;;;;;4999746;28;20064;-72
2023/10/28 06:07:34;;;;;;;14.90;8.68;;;10.10;99.90;;;;;;5008450;28;20045;-73
2023/10/28 06:10:00;;;;;;;15.43;8.02;;;10.10;99.90;;;;;;5001811;28;20044;-73
2023/10/28 06:12:25;;;;;;;13.63;7.57;;;10.10;99.90;;;;;;5017725;28;20038;-73
2023/10/28 06:14:52;;;;;;;16.52;8.25;;;10.00;99.90;;;;;;5010362;28;20038;-73
2023/10/28 06:17:20;;;;;;;14.15;7.82;;;10.00;99.90;;;;;;5016314;28;20084;-73
2023/10/28 06:19:46;;;;;;;14.63;7.57;;;10.00;99.90;;;;;;5018088;28;20437;-73
2023/10/28 06:22:13;;;;;;;17.25;7.60;;;10.00;99.90;;;;;;5019189;28;20049;-73
2023/10/28 06:24:39;;;;;;;16.13;7.57;;;10.00;99.90;;;;;;4993849;28;20056;-73
2023/10/28 06:27:05;;;;;;;11.77;6.95;;;9.90;99.90;;;;;;5019231;28;20454;-73
2023/10/28 06:29:31;;;;;;;15.65;7.32;;;10.90;99.90;;;;;;4997690;28;20522;-73
2023/10/28 06:32:01;;;;;;;14.38;7.30;;;9.90;99.90;;;;;;5020948;28;20041;-73
2023/10/28 06:34:27;;;;;;;13.48;6.57;;;9.90;99.90;;;;;;5017264;28;20399;-73
2023/10/28 06:36:54;;;;;;;13.02;6.80;;;9.90;99.90;;;;;;5017498;28;20029;-73
2023/10/28 06:39:20;;;;;;;17.60;6.80;;;10.00;99.90;;;;;;5013246;28;20171;-73
2023/10/28 06:41:45;;;;;;;13.82;6.68;;;9.90;99.90;;;;;;5023028;28;20044;-73
2023/10/28 06:44:11;;;;;;;17.55;6.65;;;10.00;99.90;;;;;;5017995;28;20037;-73
2023/10/28 06:46:37;;;;;;;14.20;6.70;;;10.00;99.90;;;;;;5005706;28;20040;-73
2023/10/28 06:49:02;;;;;;;15.00;6.03;;;10.00;99.90;;;;;;5019623;28;20037;-73
2023/10/28 06:51:29;;;;;;;12.85;6.22;;;10.00;99.90;;;;;;5017195;28;20037;-73
2023/10/28 06:53:54;;;;;;;13.18;6.43;;;10.00;99.90;;;;;;5010379;28;20447;-73
2023/10/28 06:56:20;;;;;;;11.65;6.35;;;10.00;99.90;;;;;;5013399;28;20038;-73
2023/10/28 06:58:46;;;;;;;14.23;6.45;;;10.10;99.90;;;;;;5020980;28;20038;-73
2023/10/28 07:01:19;;;;;;;14.38;6.70;;;10.10;99.90;;;;;;5011176;28;20038;-72
2023/10/28 07:03:45;;;;;;;12.88;6.30;;;10.10;99.90;;;;;;5014678;28;20437;-72
2023/10/28 07:06:14;;;;;;;11.98;6.05;;;10.10;99.90;;;;;;5007132;28;20141;-73
2023/10/28 07:08:43;;;;;;;16.17;6.07;;;10.10;99.90;;;;;;4994735;28;20048;-73
2023/10/28 07:11:13;;;;;;;11.80;5.90;;;10.10;99.90;;;;;;4996226;28;20058;-73
2023/10/28 07:13:40;;;;;;;10.60;5.55;;;10.10;99.90;;;;;;5012789;28;20042;-73
2023/10/28 07:16:06;;;;;;;12.30;6.20;;;10.00;99.90;;;;;;5017175;28;20025;-72
2023/10/28 07:18:32;;;;;;;12.30;6.07;;;10.00;99.90;;;;;;5014651;28;20037;-73
2023/10/28 07:21:00;;;;;;;13.25;6.32;;;10.10;99.90;;;;;;5023543;28;20044;-73
2023/10/28 07:23:26;;;;;;;10.52;6.00;;;10.00;99.90;;;;;;5013374;28;20041;-73
2023/10/28 07:25:56;;;;;;;10.52;5.80;;;10.00;99.90;;;;;;5007952;28;20125;-74
2023/10/28 07:28:22;;;;;;;17.00;6.30;;;10.10;99.90;;;;;;5008105;28;20117;-74
2023/10/28 07:30:50;;;;;;;9.55;5.50;;;10.10;99.90;;;;;;5011902;28;20054;-74
2023/10/28 07:33:17;;;;;;;15.00;5.75;;;10.20;99.90;;;;;;5009050;28;20061;-73
2023/10/28 07:35:44;;;;;;;11.35;6.05;;;10.10;99.90;;;;;;5007261;28;20033;-73
2023/10/28 07:38:12;;;;;;;11.95;5.68;;;10.20;99.90;;;;;;5023422;28;20128;-74
2023/10/28 07:40:38;;;;;;;12.30;5.50;;;10.20;99.90;;;;;;5012690;28;20038;-73
2023/10/28 07:43:05;;;;;;;11.90;5.32;;;10.30;99.90;;;;;;5011808;28;20061;-73
2023/10/28 07:45:31;;;;;;;10.15;5.38;;;10.30;99.90;;;;;;5009242;28;20049;-73
2023/10/28 07:47:56;;;;;;;10.27;5.30;;;10.30;99.90;;;;;;5008212;28;20046;-72
2023/10/28 07:50:22;;;;;;;8.75;5.13;;;10.30;99.90;;;;;;5010899;28;20187;-72
2023/10/28 07:52:47;;;;;;;10.07;4.78;;;10.40;99.90;;;;;;5020222;28;20486;-72
2023/10/28 07:55:13;;;;;;;12.75;5.18;;;10.40;99.90;;;;;;5025182;28;20112;-74
2023/10/28 07:57:38;;;;;;;12.25;5.30;;;10.80;99.90;;;;;;5013667;28;20498;-73
2023/10/28 08:00:05;;;;;;;10.55;5.10;;;10.40;99.90;;;;;;5020908;28;20034;-73
2023/10/28 08:02:31;;;;;;;8.70;4.70;;;10.40;99.90;;;;;;5010097;28;20053;-73
2023/10/28 08:04:58;;;;;;;10.68;4.50;;;10.50;99.90;;;;;;5002336;28;20042;-72
2023/10/28 08:07:24;;;;;;;10.82;5.05;;;10.50;99.90;;;;;;5013565;28;20069;-73
2023/10/28 08:09:51;;;;;;;10.07;4.82;;;10.50;99.90;;;;;;5014412;22;20080;-72
2023/10/28 08:12:16;;;;;;;10.93;4.63;;;10.50;99.90;;;;;;5030962;28;20552;-73
2023/10/28 08:14:47;;;;;;;11.95;4.88;;;10.60;99.90;;;;;;5039566;28;20079;-73
2023/10/28 08:17:13;;;;;;;14.85;5.07;;;10.60;99.90;;;;;;5046583;28;21930;-73
2023/10/28 08:19:44;;;;;;;10.45;4.97;;;10.60;99.90;;;;;;5014773;28;20124;-74
2023/10/28 08:22:15;;;;;;;9.90;4.78;;;10.60;99.90;;;;;;5014009;28;20053;-72
2023/10/28 08:24:41;;;;;;;8.98;4.60;;;10.60;99.90;;;;;;5017482;28;20064;-73
2023/10/28 08:27:08;;;;;;;13.13;4.88;;;10.70;99.90;;;;;;5012207;28;20074;-73
2023/10/28 08:29:35;;;;;;;9.18;4.97;;;10.70;99.90;;;;;;5015259;28;20045;-74
2023/10/28 08:32:01;;;;;;;9.55;4.40;;;10.70;99.90;;;;;;5013393;28;20062;-73
2023/10/28 08:34:27;;;;;;;11.48;5.00;;;10.70;99.90;;;;;;5012911;28;20037;-73
2023/10/28 08:36:53;;;;;;;11.30;4.63;;;10.70;99.90;;;;;;5018881;28;20091;-73
2023/10/28 08:39:19;;;;;;;8.98;4.90;;;10.70;99.90;;;;;;5018676;28;20037;-72
2023/10/28 08:41:46;;;;;;;8.15;5.03;;;10.80;99.90;;;;;;5019730;28;20042;-72
2023/10/28 08:44:14;;;;;;;9.18;4.65;;;10.80;99.90;;;;;;5015954;28;20402;-73
2023/10/28 08:46:41;;;;;;;9.73;4.82;;;10.90;99.90;;;;;;5023951;28;20090;-72
2023/10/28 08:49:12;;;;;;;9.82;5.03;;;10.90;99.90;;;;;;5008090;28;20403;-72
2023/10/28 08:51:42;;;;;;;12.05;5.07;;;10.90;99.90;;;;;;5026485;28;20045;-70
2023/10/28 08:54:11;;;;;;;15.38;5.40;;;10.90;99.90;;;;;;5015540;28;20047;-71
2023/10/28 08:56:42;;;;;;;11.15;5.07;;;11.00;99.90;;;;;;5003728;28;20056;-73
2023/10/28 08:59:08;;;;;;;13.90;4.88;;;11.00;99.90;;;;;;5019070;28;20042;-72
2023/10/28 09:01:36;;;;;;;9.88;4.85;;;11.00;99.90;;;;;;5020811;28;20119;-73
2023/10/28 09:04:04;;;;;;;10.00;4.75;;;11.10;99.90;;;;;;5015568;28;20053;-72
2023/10/28 09:06:30;;;;;;;8.98;4.68;;;11.20;99.90;;;;;;5002185;28;20040;-73
2023/10/28 09:08:58;;;;;;;9.70;5.13;;;11.20;99.90;;;;;;5016021;28;20034;-73
2023/10/28 09:11:25;;;;;;;14.10;5.70;;;11.20;99.90;;;;;;5020885;28;20080;-73
2023/10/28 09:13:51;;;;;;;9.93;4.63;;;11.30;99.90;;;;;;5017998;28;20068;-74
2023/10/28 09:16:17;;;;;;;11.80;4.55;;;11.30;99.90;;;;;;5012312;28;20045;-73
2023/10/28 09:18:44;;;;;;;12.18;4.90;;;11.40;99.90;;;;;;5014531;28;20041;-72
2023/10/28 09:21:11;;;;;;;12.02;4.45;;;11.40;99.90;;;;;;5009889;28;20121;-73
2023/10/28 09:23:43;;;;;;;10.63;4.45;;;11.40;99.90;;;;;;5015726;28;20048;-72
2023/10/28 09:26:09;;;;;;;9.90;4.30;;;11.50;99.90;;;;;;5011523;28;20499;-74
2023/10/28 09:28:42;;;;;;;13.18;4.25;;;11.50;99.90;;;;;;5008676;28;20589;-72
2023/10/28 09:31:08;;;;;;;13.80;5.50;;;11.50;99.90;;;;;;5009745;28;20048;-72
2023/10/28 09:33:34;;;;;;;11.23;4.75;;;11.50;99.90;;;;;;5005181;28;20050;-72
2023/10/28 09:36:00;;;;;;;12.23;4.80;;;11.20;99.90;;;;;;5022954;28;20037;-72
2023/10/28 09:38:26;;;;;;;13.20;5.22;;;11.50;99.90;;;;;;5014449;28;20064;-72
2023/10/28 09:40:53;;;;;;;9.20;4.43;;;11.50;99.90;;;;;;5027645;28;20048;-73
2023/10/28 09:43:19;;;;;;;9.98;4.20;;;11.50;99.90;;;;;;5021867;28;20040;-72
2023/10/28 09:45:49;;;;;;;9.35;4.13;;;11.50;99.90;;;;;;5021696;28;20117;-72
2023/10/28 09:48:19;;;;;;;8.98;4.28;;;11.50;99.90;;;;;;5011019;28;20049;-72
2023/10/28 09:50:50;;;;;;;11.48;4.18;;;11.50;99.90;;;;;;5022652;28;20049;-72
2023/10/28 09:53:23;;;;;;;6.68;3.97;;;11.50;99.90;;;;;;5002255;28;20411;-72
2023/10/28 09:55:56;;;;;;;13.18;4.28;;;11.50;99.90;;;;;;5014866;28;20046;-72
2023/10/28 09:58:24;;;;;;;9.32;4.05;;;11.50;99.90;;;;;;4998547;28;20056;-72
2023/10/28 10:00:57;;;;;;;9.63;3.95;;;11.50;99.90;;;;;;5017774;28;20560;-73
2023/10/28 10:03:43;;;;;;;6.70;3.75;;;11.50;99.90;;;;;;5018177;28;20406;-72
2023/10/28 10:06:09;;;;;;;8.43;3.55;;;11.50;99.90;;;;;;5019139;28;20045;-72
2023/10/28 10:08:36;;;;;;;10.75;4.00;;;11.50;99.90;;;;;;5016052;28;20552;-73
2023/10/28 10:11:05;;;;;;;11.85;3.88;;;11.50;99.90;;;;;;5020346;28;20052;-72
2023/10/28 10:13:41;;;;;;;9.38;3.97;;;11.50;99.90;;;;;;5021510;28;20049;-72
2023/10/28 10:16:19;;;;;;;10.73;3.75;;;11.50;99.90;;;;;;5025516;28;20041;-72
2023/10/28 10:18:49;;;;;;;9.02;3.45;;;11.60;99.90;;;;;;5022921;28;20064;-72
2023/10/28 10:21:20;;;;;;;9.35;3.88;;;11.60;99.90;;;;;;5026043;28;20092;-73
2023/10/28 10:23:54;;;;;;;12.50;3.90;;;11.70;99.90;;;;;;5009945;28;20095;-72
2023/10/28 10:26:31;;;;;;;8.90;3.72;;;12.40;99.90;;;;;;5018137;28;20441;-72
2023/10/28 10:28:59;;;;;;;7.68;3.70;;;11.90;99.90;;;;;;5003539;28;20042;-73
2023/10/28 10:31:33;;;;;;;10.00;3.80;;;12.00;99.90;;;;;;5020755;28;20088;-72
2023/10/28 10:34:05;;;;;;;10.95;3.75;;;12.10;99.90;;;;;;5020392;28;20045;-72
2023/10/28 10:36:40;;;;;;;7.80;3.40;;;12.20;99.90;;;;;;5023372;28;20630;-72
2023/10/28 10:39:18;;;;;;;12.63;4.00;;;12.20;99.90;;;;;;5029305;28;20441;-72
2023/10/28 10:41:51;;;;;;;7.82;3.65;;;12.30;99.90;;;;;;5016134;28;20081;-72
2023/10/28 10:44:34;;;;;;;7.28;3.63;;;12.30;99.90;;;;;;5003839;28;20029;-72
2023/10/28 10:47:01;;;;;;;8.80;3.75;;;12.30;99.90;;;;;;5020944;28;20048;-72
2023/10/28 10:49:27;;;;;;;8.50;3.60;;;12.30;99.90;;;;;;5022033;28;20030;-72
2023/10/28 10:51:53;;;;;;;10.35;3.80;;;12.40;99.90;;;;;;5017365;28;20048;-72
2023/10/28 10:54:18;;;;;;;8.48;3.63;;;12.30;99.90;;;;;;5018442;28;20025;-72
2023/10/28 10:56:45;;;;;;;7.05;3.85;;;12.20;99.90;;;;;;5018772;28;20065;-72
2023/10/28 10:59:11;;;;;;;7.65;3.53;;;12.40;99.90;;;;;;5014305;28;20045;-72
2023/10/28 11:01:40;;;;;;;8.10;3.38;;;12.20;99.90;;;;;;5021594;28;20068;-72
2023/10/28 11:04:07;;;;;;;11.38;3.97;;;12.20;99.90;;;;;;5015156;28;20521;-72
2023/10/28 11:06:33;;;;;;;9.00;3.42;;;12.20;99.90;;;;;;5026852;28;20049;-73
2023/10/28 11:09:06;;;;;;;10.63;3.63;;;12.50;99.90;;;;;;5019739;28;20068;-72
2023/10/28 11:11:35;;;;;;;;;;;12.20;99.90;;;;;;5013493;28;20168;-72
2023/10/28 11:14:02;;;;;;;9.02;3.17;;;12.20;99.90;;;;;;5025245;28;19946;-73
2023/10/28 11:16:30;;;;;;;8.85;3.38;;;12.20;99.90;;;;;;5012280;28;20041;-72
2023/10/28 11:18:59;;;;;;;5.30;2.80;;;12.20;99.90;;;;;;5016339;28;20046;-73
2023/10/28 11:21:25;;;;;;;6.72;3.10;;;12.20;99.90;;;;;;5012683;28;20145;-73
2023/10/28 11:23:52;;;;;;;8.15;3.15;;;12.10;99.90;;;;;;5022537;28;20104;-72
2023/10/28 11:26:19;;;;;;;8.38;3.58;;;12.20;99.90;;;;;;5001139;28;20096;-73
2023/10/28 11:28:45;;;;;;;8.73;3.47;;;12.20;99.90;;;;;;5013549;28;20041;-73
2023/10/28 11:31:39;;;;;;;11.13;3.35;;;12.20;99.90;;;;;;5005783;28;20053;-73
2023/10/28 11:34:09;;;;;;;6.90;3.42;;;12.30;99.90;;;;;;5001305;28;20554;-74
2023/10/28 11:36:37;;;;;;;9.52;3.60;;;12.20;99.90;;;;;;5016995;28;20503;-74
2023/10/28 11:39:08;;;;;;;7.55;3.30;;;12.20;99.90;;;;;;5012278;28;20399;-75
2023/10/28 11:41:34;;;;;;;9.70;3.90;;;12.20;99.90;;;;;;5014638;28;20033;-73
2023/10/28 11:44:03;;;;;;;6.47;3.13;;;12.20;99.90;;;;;;5013933;28;20654;-75
2023/10/28 11:46:29;;;;;;;12.18;3.58;;;12.20;99.90;;;;;;5022067;28;20040;-74
2023/10/28 11:48:55;;;;;;;6.97;3.45;;;12.30;99.90;;;;;;5020465;28;21626;-74
2023/10/28 11:51:30;;;;;;;7.07;3.05;;;12.30;99.90;;;;;;5002638;28;20045;-72
2023/10/28 11:53:56;;;;;;;8.20;3.60;;;12.40;99.90;;;;;;5015307;28;20056;-76
2023/10/28 11:56:22;;;;;;;11.48;3.42;;;12.40;99.90;;;;;;5008360;28;20034;-74
2023/10/28 11:58:50;;;;;;;8.35;3.17;;;12.50;99.90;;;;;;4991875;28;20137;-73
2023/10/28 12:01:16;;;;;;;8.77;3.35;;;12.50;99.90;;;;;;5009934;28;20069;-73
2023/10/28 12:03:41;;;;;;;12.60;3.35;;;12.60;99.90;;;;;;5008240;28;20144;-74
2023/10/28 12:06:07;;;;;;;7.68;2.92;;;12.60;99.90;;;;;;5011276;28;20572;-73
2023/10/28 12:08:33;;;;;;;9.00;3.28;;;12.70;99.90;;;;;;4996036;28;20045;-73
2023/10/28 12:11:01;;;;;;;9.10;3.47;;;12.80;99.90;;;;;;5008748;28;20561;-73
2023/10/28 12:13:28;;;;;;;11.52;3.47;;;12.80;99.90;;;;;;5014427;28;20052;-73
2023/10/28 12:15:54;;;;;;;7.72;2.83;;;12.80;99.90;;;;;;5011530;28;20168;-73
2023/10/28 12:18:19;;;;;;;9.95;3.50;;;12.80;99.90;;;;;;5017372;28;20087;-74
2023/10/28 12:20:46;;;;;;;6.97;2.75;;;12.80;99.90;;;;;;5023968;28;20306;-73
2023/10/28 12:23:16;;;;;;;7.10;2.97;;;12.80;99.90;;;;;;5005170;28;20050;-73
2023/10/28 12:25:42;;;;;;;9.85;2.92;;;12.90;99.90;;;;;;5014489;28;20049;-73
2023/10/28 12:28:08;;;;;;;17.55;3.28;;;12.90;99.90;;;;;;5013680;28;20372;-74
2023/10/28 12:30:34;;;;;;;10.13;3.00;;;12.90;99.90;;;;;;5012086;28;20065;-73
2023/10/28 12:33:03;;;;;;;9.30;3.42;;;12.90;99.90;;;;;;5002000;28;20106;-74
2023/10/28 12:35:29;;;;;;;6.47;2.70;;;13.00;99.90;;;;;;5017621;28;20034;-73
2023/10/28 12:37:54;;;;;;;11.25;3.00;;;13.00;99.90;;;;;;5024218;28;20037;-74
2023/10/28 12:40:20;;;;;;;8.30;2.72;;;13.00;99.90;;;;;;5008886;28;20036;-74